sensor_id;sensor_type;location;lat;lon;timestamp;pressure;altitude;pressure_sealevel;temperature;humidity
67013;BME280;53926;47.406;19.188;2023-02-07T00:01:24;102613.53;;;-9.90;100.00
67013;BME280;53926;47.406;19.188;2023-02-07T00:03:51;102610.72;;;-9.65;100.00
67013;BME280;53926;47.406;19.188;2023-02-07T00:06:28;102614.41;;;-9.94;100.00
67013;BME280;53926;47.406;19.188;2023-02-07T00:08:55;102618.56;;;-9.88;100.00
67013;BME280;53926;47.406;19.188;2023-02-07T00:11:22;102630.84;;;-9.62;100.00
67013;BME280;53926;47.406;19.188;2023-02-07T00:13:54;102648.19;;;-10.07;100.00
67013;BME280;53926;47.406;19.188;2023-02-07T00:16:21;102638.88;;;-10.02;100.00
67013;BME280;53926;47.406;19.188;2023-02-07T00:18:48;102641.28;;;-9.91;100.00
67013;BME280;53926;47.406;19.188;2023-02-07T00:21:20;102643.44;;;-9.60;100.00
67013;BME280;53926;47.406;19.188;2023-02-07T00:23:48;102636.06;;;-9.77;100.00
67013;BME280;53926;47.406;19.188;2023-02-07T00:26:20;102647.16;;;-9.92;100.00
67013;BME280;53926;47.406;19.188;2023-02-07T00:28:48;102655.59;;;-9.93;100.00
67013;BME280;53926;47.406;19.188;2023-02-07T00:31:19;102647.63;;;-9.59;100.00
67013;BME280;53926;47.406;19.188;2023-02-07T00:33:47;102648.56;;;-9.68;100.00
67013;BME280;53926;47.406;19.188;2023-02-07T00:36:17;102650.22;;;-9.64;100.00
67013;BME280;53926;47.406;19.188;2023-02-07T00:38:44;102647.13;;;-9.91;100.00
67013;BME280;53926;47.406;19.188;2023-02-07T00:41:17;102636.22;;;-9.91;100.00
67013;BME280;53926;47.406;19.188;2023-02-07T00:43:46;102640.34;;;-9.82;100.00
67013;BME280;53926;47.406;19.188;2023-02-07T00:46:14;102642.78;;;-9.76;100.00
67013;BME280;53926;47.406;19.188;2023-02-07T00:48:41;102646.38;;;-9.97;100.00
67013;BME280;53926;47.406;19.188;2023-02-07T00:51:09;102640.22;;;-9.73;100.00
67013;BME280;53926;47.406;19.188;2023-02-07T00:53:36;102637.94;;;-9.92;100.00
67013;BME280;53926;47.406;19.188;2023-02-07T00:56:06;102651.34;;;-9.90;100.00
67013;BME280;53926;47.406;19.188;2023-02-07T00:58:33;102648.25;;;-10.13;100.00
67013;BME280;53926;47.406;19.188;2023-02-07T01:00:59;102651.56;;;-10.11;100.00
67013;BME280;53926;47.406;19.188;2023-02-07T01:03:27;102648.22;;;-10.10;100.00
67013;BME280;53926;47.406;19.188;2023-02-07T01:05:53;102653.16;;;-10.01;100.00
67013;BME280;53926;47.406;19.188;2023-02-07T01:08:20;102649.09;;;-10.17;100.00
67013;BME280;53926;47.406;19.188;2023-02-07T01:10:47;102645.62;;;-10.05;100.00
67013;BME280;53926;47.406;19.188;2023-02-07T01:13:14;102642.94;;;-9.89;100.00
67013;BME280;53926;47.406;19.188;2023-02-07T01:15:46;102645.22;;;-9.68;100.00
67013;BME280;53926;47.406;19.188;2023-02-07T01:18:13;102641.84;;;-9.69;100.00
67013;BME280;53926;47.406;19.188;2023-02-07T01:20:39;102647.94;;;-9.84;100.00
67013;BME280;53926;47.406;19.188;2023-02-07T01:23:06;102641.19;;;-9.83;100.00
67013;BME280;53926;47.406;19.188;2023-02-07T01:25:33;102642.03;;;-9.86;100.00
67013;BME280;53926;47.406;19.188;2023-02-07T01:28:00;102646.16;;;-9.77;100.00
67013;BME280;53926;47.406;19.188;2023-02-07T01:30:27;102639.41;;;-9.77;100.00
67013;BME280;53926;47.406;19.188;2023-02-07T01:32:56;102624.13;;;-9.63;100.00
67013;BME280;53926;47.406;19.188;2023-02-07T01:35:23;102620.78;;;-9.63;100.00
67013;BME280;53926;47.406;19.188;2023-02-07T01:37:49;102629.34;;;-9.78;100.00
67013;BME280;53926;47.406;19.188;2023-02-07T01:40:16;102628.50;;;-9.77;100.00
67013;BME280;53926;47.406;19.188;2023-02-07T01:42:43;102627.63;;;-9.73;100.00
67013;BME280;53926;47.406;19.188;2023-02-07T01:47:59;102624.44;;;-9.91;100.00
67013;BME280;53926;47.406;19.188;2023-02-07T01:50:27;102619.59;;;-10.06;100.00
67013;BME280;53926;47.406;19.188;2023-02-07T01:52:55;102616.87;;;-9.91;100.00
67013;BME280;53926;47.406;19.188;2023-02-07T01:55:27;102601.72;;;-9.88;100.00
67013;BME280;53926;47.406;19.188;2023-02-07T01:57:56;102593.97;;;-9.72;100.00
67013;BME280;53926;47.406;19.188;2023-02-07T02:00:23;102595.22;;;-10.04;100.00
67013;BME280;53926;47.406;19.188;2023-02-07T02:02:49;102596.69;;;-9.89;100.00
67013;BME280;53926;47.406;19.188;2023-02-07T02:05:17;102592.81;;;-10.15;100.00
67013;BME280;53926;47.406;19.188;2023-02-07T02:07:47;102584.22;;;-10.00;100.00
67013;BME280;53926;47.406;19.188;2023-02-07T02:10:17;102586.06;;;-10.11;100.00
67013;BME280;53926;47.406;19.188;2023-02-07T02:24:22;102592.78;;;-10.10;100.00
67013;BME280;53926;47.406;19.188;2023-02-07T02:35:28;102584.41;;;-10.15;100.00
67013;BME280;53926;47.406;19.188;2023-02-07T02:38:25;102579.25;;;-10.06;100.00
67013;BME280;53926;47.406;19.188;2023-02-07T02:41:02;102587.44;;;-9.85;100.00
67013;BME280;53926;47.406;19.188;2023-02-07T02:43:42;102583.41;;;-10.00;100.00
67013;BME280;53926;47.406;19.188;2023-02-07T02:46:34;102583.63;;;-10.19;100.00
67013;BME280;53926;47.406;19.188;2023-02-07T02:49:03;102574.34;;;-10.17;100.00
67013;BME280;53926;47.406;19.188;2023-02-07T02:51:35;102572.72;;;-10.19;100.00
67013;BME280;53926;47.406;19.188;2023-02-07T02:54:01;102588.03;;;-10.36;100.00
67013;BME280;53926;47.406;19.188;2023-02-07T03:02:17;102579.06;;;-10.65;100.00
67013;BME280;53926;47.406;19.188;2023-02-07T03:07:50;102584.72;;;-10.43;100.00
67013;BME280;53926;47.406;19.188;2023-02-07T03:10:31;102588.56;;;-10.11;100.00
67013;BME280;53926;47.406;19.188;2023-02-07T03:13:14;102584.00;;;-10.53;100.00
67013;BME280;53926;47.406;19.188;2023-02-07T03:18:41;102597.47;;;-10.57;100.00
67013;BME280;53926;47.406;19.188;2023-02-07T03:23:50;102608.91;;;-10.28;100.00
67013;BME280;53926;47.406;19.188;2023-02-07T03:26:20;102606.03;;;-10.81;100.00
67013;BME280;53926;47.406;19.188;2023-02-07T03:28:49;102605.19;;;-10.79;100.00
67013;BME280;53926;47.406;19.188;2023-02-07T03:31:19;102603.44;;;-10.72;100.00
67013;BME280;53926;47.406;19.188;2023-02-07T03:33:48;102599.41;;;-10.88;100.00
67013;BME280;53926;47.406;19.188;2023-02-07T03:36:27;102603.34;;;-10.61;100.00
67013;BME280;53926;47.406;19.188;2023-02-07T03:38:57;102590.94;;;-10.80;100.00
67013;BME280;53926;47.406;19.188;2023-02-07T03:41:39;102596.84;;;-10.82;100.00
67013;BME280;53926;47.406;19.188;2023-02-07T03:44:09;102599.44;;;-10.90;100.00
67013;BME280;53926;47.406;19.188;2023-02-07T03:46:38;102586.75;;;-10.79;100.00
67013;BME280;53926;47.406;19.188;2023-02-07T03:49:05;102596.13;;;-11.00;100.00
67013;BME280;53926;47.406;19.188;2023-02-07T03:51:36;102588.97;;;-10.47;100.00
67013;BME280;53926;47.406;19.188;2023-02-07T03:54:05;102586.69;;;-10.70;100.00
67013;BME280;53926;47.406;19.188;2023-02-07T03:56:32;102585.87;;;-10.76;100.00
67013;BME280;53926;47.406;19.188;2023-02-07T03:58:58;102596.59;;;-10.54;100.00
67013;BME280;53926;47.406;19.188;2023-02-07T04:01:25;102585.06;;;-10.79;100.00
67013;BME280;53926;47.406;19.188;2023-02-07T04:03:52;102587.28;;;-10.48;100.00
67013;BME280;53926;47.406;19.188;2023-02-07T04:06:19;102588.34;;;-10.72;100.00
67013;BME280;53926;47.406;19.188;2023-02-07T04:08:46;102580.03;;;-10.79;100.00
67013;BME280;53926;47.406;19.188;2023-02-07T04:11:13;102578.47;;;-10.93;100.00
67013;BME280;53926;47.406;19.188;2023-02-07T04:13:39;102582.72;;;-11.00;100.00
67013;BME280;53926;47.406;19.188;2023-02-07T04:16:06;102576.50;;;-10.57;100.00
67013;BME280;53926;47.406;19.188;2023-02-07T04:18:33;102579.91;;;-10.65;100.00
67013;BME280;53926;47.406;19.188;2023-02-07T04:21:05;102566.66;;;-10.85;100.00
67013;BME280;53926;47.406;19.188;2023-02-07T04:23:32;102570.69;;;-10.69;100.00
67013;BME280;53926;47.406;19.188;2023-02-07T04:25:59;102566.16;;;-10.33;100.00
67013;BME280;53926;47.406;19.188;2023-02-07T04:28:26;102575.75;;;-10.72;100.00
67013;BME280;53926;47.406;19.188;2023-02-07T04:30:53;102573.06;;;-10.49;100.00
67013;BME280;53926;47.406;19.188;2023-02-07T04:33:23;102570.06;;;-10.89;100.00
67013;BME280;53926;47.406;19.188;2023-02-07T04:36:03;102573.41;;;-10.92;100.00
67013;BME280;53926;47.406;19.188;2023-02-07T04:38:29;102572.66;;;-11.02;100.00
67013;BME280;53926;47.406;19.188;2023-02-07T04:40:58;102571.78;;;-10.96;100.00
67013;BME280;53926;47.406;19.188;2023-02-07T04:43:30;102564.12;;;-10.82;100.00
67013;BME280;53926;47.406;19.188;2023-02-07T04:45:56;102570.53;;;-10.49;100.00
67013;BME280;53926;47.406;19.188;2023-02-07T04:48:23;102570.69;;;-10.69;100.00
67013;BME280;53926;47.406;19.188;2023-02-07T04:50:50;102577.53;;;-10.82;100.00
67013;BME280;53926;47.406;19.188;2023-02-07T04:53:17;102584.19;;;-10.73;100.00
67013;BME280;53926;47.406;19.188;2023-02-07T04:55:48;102594.81;;;-10.45;100.00
67013;BME280;53926;47.406;19.188;2023-02-07T04:58:14;102599.87;;;-10.46;100.00
67013;BME280;53926;47.406;19.188;2023-02-07T05:00:41;102600.84;;;-10.63;100.00
67013;BME280;53926;47.406;19.188;2023-02-07T05:03:08;102594.25;;;-10.71;100.00
67013;BME280;53926;47.406;19.188;2023-02-07T05:05:42;102600.03;;;-10.65;100.00
67013;BME280;53926;47.406;19.188;2023-02-07T05:08:09;102596.53;;;-10.48;100.00
67013;BME280;53926;47.406;19.188;2023-02-07T05:10:37;102600.75;;;-10.49;100.00
67013;BME280;53926;47.406;19.188;2023-02-07T05:13:04;102614.06;;;-10.37;100.00
67013;BME280;53926;47.406;19.188;2023-02-07T05:15:32;102608.22;;;-10.39;100.00
67013;BME280;53926;47.406;19.188;2023-02-07T05:17:58;102624.84;;;-10.28;100.00
67013;BME280;53926;47.406;19.188;2023-02-07T05:20:25;102620.59;;;-10.21;100.00
67013;BME280;53926;47.406;19.188;2023-02-07T05:22:52;102629.06;;;-10.30;100.00
67013;BME280;53926;47.406;19.188;2023-02-07T05:25:21;102633.13;;;-10.13;100.00
67013;BME280;53926;47.406;19.188;2023-02-07T05:27:48;102635.75;;;-10.26;100.00
67013;BME280;53926;47.406;19.188;2023-02-07T05:30:15;102643.28;;;-10.22;100.00
67013;BME280;53926;47.406;19.188;2023-02-07T05:32:42;102647.56;;;-10.32;100.00
67013;BME280;53926;47.406;19.188;2023-02-07T05:35:27;102645.97;;;-10.36;100.00
67013;BME280;53926;47.406;19.188;2023-02-07T05:37:57;102646.72;;;-10.30;100.00
67013;BME280;53926;47.406;19.188;2023-02-07T05:40:26;102646.66;;;-10.23;100.00
67013;BME280;53926;47.406;19.188;2023-02-07T05:42:53;102646.00;;;-10.41;100.00
67013;BME280;53926;47.406;19.188;2023-02-07T05:45:20;102645.19;;;-10.46;100.00
67013;BME280;53926;47.406;19.188;2023-02-07T05:47:47;102647.09;;;-10.71;100.00
67013;BME280;53926;47.406;19.188;2023-02-07T05:50:14;102638.81;;;-10.86;100.00
67013;BME280;53926;47.406;19.188;2023-02-07T05:52:41;102638.78;;;-10.81;100.00
67013;BME280;53926;47.406;19.188;2023-02-07T05:55:08;102641.03;;;-10.47;100.00
67013;BME280;53926;47.406;19.188;2023-02-07T05:57:35;102641.09;;;-10.53;100.00
67013;BME280;53926;47.406;19.188;2023-02-07T06:00:02;102645.25;;;-10.52;100.00
67013;BME280;53926;47.406;19.188;2023-02-07T06:02:29;102635.31;;;-10.68;100.00
67013;BME280;53926;47.406;19.188;2023-02-07T06:04:56;102643.81;;;-10.81;100.00
67013;BME280;53926;47.406;19.188;2023-02-07T06:07:22;102634.44;;;-10.62;100.00
67013;BME280;53926;47.406;19.188;2023-02-07T06:09:49;102638.59;;;-10.59;100.00
67013;BME280;53926;47.406;19.188;2023-02-07T06:12:16;102648.66;;;-10.53;100.00
67013;BME280;53926;47.406;19.188;2023-02-07T06:14:42;102638.62;;;-10.63;100.00
67013;BME280;53926;47.406;19.188;2023-02-07T06:17:09;102639.53;;;-10.68;100.00
67013;BME280;53926;47.406;19.188;2023-02-07T06:19:36;102645.31;;;-10.58;100.00
67013;BME280;53926;47.406;19.188;2023-02-07T06:22:02;102641.13;;;-10.61;100.00
67013;BME280;53926;47.406;19.188;2023-02-07T06:24:29;102648.66;;;-10.59;100.00
67013;BME280;53926;47.406;19.188;2023-02-07T06:26:56;102650.34;;;-10.57;100.00
67013;BME280;53926;47.406;19.188;2023-02-07T06:29:23;102649.34;;;-10.39;100.00
67013;BME280;53926;47.406;19.188;2023-02-07T06:31:49;102653.69;;;-10.56;100.00
67013;BME280;53926;47.406;19.188;2023-02-07T06:34:16;102655.44;;;-10.66;100.00
67013;BME280;53926;47.406;19.188;2023-02-07T06:36:43;102654.28;;;-10.30;100.00
67013;BME280;53926;47.406;19.188;2023-02-07T06:39:09;102650.28;;;-10.52;100.00
67013;BME280;53926;47.406;19.188;2023-02-07T06:41:36;102654.56;;;-10.59;100.00
67013;BME280;53926;47.406;19.188;2023-02-07T06:44:03;102641.03;;;-10.46;100.00
67013;BME280;53926;47.406;19.188;2023-02-07T06:46:30;102641.31;;;-9.94;100.00
67013;BME280;53926;47.406;19.188;2023-02-07T06:48:57;102641.31;;;-9.96;100.00
67013;BME280;53926;47.406;19.188;2023-02-07T06:51:23;102626.13;;;-9.90;100.00
67013;BME280;53926;47.406;19.188;2023-02-07T06:53:50;102631.28;;;-10.00;100.00
67013;BME280;53926;47.406;19.188;2023-02-07T06:56:17;102619.38;;;-9.88;100.00
67013;BME280;53926;47.406;19.188;2023-02-07T06:58:44;102622.56;;;-9.72;100.00
67013;BME280;53926;47.406;19.188;2023-02-07T07:01:11;102619.97;;;-9.67;100.00
67013;BME280;53926;47.406;19.188;2023-02-07T07:03:37;102619.81;;;-9.55;100.00
67013;BME280;53926;47.406;19.188;2023-02-07T07:06:04;102619.72;;;-9.45;100.00
67013;BME280;53926;47.406;19.188;2023-02-07T07:08:31;102624.53;;;-9.28;100.00
67013;BME280;53926;47.406;19.188;2023-02-07T07:10:57;102634.06;;;-8.90;100.00
67013;BME280;53926;47.406;19.188;2023-02-07T07:13:24;102631.34;;;-8.77;100.00
67013;BME280;53926;47.406;19.188;2023-02-07T07:15:50;102636.69;;;-8.46;100.00
67013;BME280;53926;47.406;19.188;2023-02-07T07:18:17;102632.19;;;-8.32;100.00
67013;BME280;53926;47.406;19.188;2023-02-07T07:20:44;102633.63;;;-8.17;100.00
67013;BME280;53926;47.406;19.188;2023-02-07T07:23:11;102626.41;;;-7.93;100.00
67013;BME280;53926;47.406;19.188;2023-02-07T07:25:37;102627.66;;;-7.70;100.00
67013;BME280;53926;47.406;19.188;2023-02-07T07:28:04;102629.69;;;-7.46;100.00
67013;BME280;53926;47.406;19.188;2023-02-07T07:30:31;102627.44;;;-7.19;100.00
67013;BME280;53926;47.406;19.188;2023-02-07T07:32:58;102624.09;;;-7.21;100.00
67013;BME280;53926;47.406;19.188;2023-02-07T07:35:25;102624.78;;;-7.14;100.00
67013;BME280;53926;47.406;19.188;2023-02-07T07:37:51;102619.38;;;-6.99;100.00
67013;BME280;53926;47.406;19.188;2023-02-07T07:40:18;102622.31;;;-6.81;100.00
67013;BME280;53926;47.406;19.188;2023-02-07T07:42:45;102623.09;;;-6.79;100.00
67013;BME280;53926;47.406;19.188;2023-02-07T07:45:12;102627.94;;;-6.70;100.00
67013;BME280;53926;47.406;19.188;2023-02-07T07:47:39;102622.66;;;-6.61;100.00
67013;BME280;53926;47.406;19.188;2023-02-07T07:50:06;102625.03;;;-6.55;100.00
67013;BME280;53926;47.406;19.188;2023-02-07T07:52:33;102627.06;;;-6.35;100.00
67013;BME280;53926;47.406;19.188;2023-02-07T07:55:00;102621.66;;;-6.22;100.00
67013;BME280;53926;47.406;19.188;2023-02-07T07:57:26;102626.31;;;-6.07;100.00
67013;BME280;53926;47.406;19.188;2023-02-07T07:59:56;102617.44;;;-5.92;100.00
67013;BME280;53926;47.406;19.188;2023-02-07T08:02:23;102632.06;;;-5.70;100.00
67013;BME280;53926;47.406;19.188;2023-02-07T08:04:50;102627.44;;;-5.58;100.00
67013;BME280;53926;47.406;19.188;2023-02-07T08:07:17;102622.81;;;-5.43;100.00
67013;BME280;53926;47.406;19.188;2023-02-07T08:09:44;102623.13;;;-5.26;100.00
67013;BME280;53926;47.406;19.188;2023-02-07T08:12:10;102619.53;;;-5.18;100.00
67013;BME280;53926;47.406;19.188;2023-02-07T08:14:37;102617.47;;;-5.07;100.00
67013;BME280;53926;47.406;19.188;2023-02-07T08:17:04;102628.53;;;-4.81;100.00
67013;BME280;53926;47.406;19.188;2023-02-07T08:19:30;102614.44;;;-4.40;100.00
67013;BME280;53926;47.406;19.188;2023-02-07T08:21:57;102612.97;;;-3.98;100.00
67013;BME280;53926;47.406;19.188;2023-02-07T08:24:23;102612.16;;;-3.09;100.00
67013;BME280;53926;47.406;19.188;2023-02-07T08:26:50;102610.78;;;-2.54;100.00
67013;BME280;53926;47.406;19.188;2023-02-07T08:29:17;102615.56;;;-1.69;100.00
67013;BME280;53926;47.406;19.188;2023-02-07T08:31:43;102608.97;;;-1.36;100.00
67013;BME280;53926;47.406;19.188;2023-02-07T08:34:10;102618.00;;;-1.29;100.00
67013;BME280;53926;47.406;19.188;2023-02-07T08:36:37;102617.94;;;-1.28;100.00
67013;BME280;53926;47.406;19.188;2023-02-07T08:39:04;102621.88;;;-0.50;100.00
67013;BME280;53926;47.406;19.188;2023-02-07T08:41:32;102613.69;;;0.72;100.00
67013;BME280;53926;47.406;19.188;2023-02-07T08:43:58;102623.44;;;1.42;100.00
67013;BME280;53926;47.406;19.188;2023-02-07T08:46:25;102626.81;;;2.14;96.07
67013;BME280;53926;47.406;19.188;2023-02-07T08:48:52;102634.88;;;3.30;94.67
67013;BME280;53926;47.406;19.188;2023-02-07T08:51:18;102627.38;;;2.47;83.05
67013;BME280;53926;47.406;19.188;2023-02-07T08:53:45;102625.94;;;3.36;81.73
67013;BME280;53926;47.406;19.188;2023-02-07T08:56:12;102630.31;;;3.98;72.25
67013;BME280;53926;47.406;19.188;2023-02-07T08:58:38;102621.97;;;4.91;68.47
67013;BME280;53926;47.406;19.188;2023-02-07T09:01:06;102625.00;;;5.20;71.33
67013;BME280;53926;47.406;19.188;2023-02-07T09:03:37;102624.38;;;5.06;60.40
67013;BME280;53926;47.406;19.188;2023-02-07T09:06:03;102621.53;;;7.19;58.16
67013;BME280;53926;47.406;19.188;2023-02-07T09:08:30;102616.25;;;7.00;59.14
67013;BME280;53926;47.406;19.188;2023-02-07T09:10:57;102621.25;;;8.15;53.87
67013;BME280;53926;47.406;19.188;2023-02-07T09:13:23;102615.06;;;7.96;54.89
67013;BME280;53926;47.406;19.188;2023-02-07T09:15:57;102612.03;;;9.28;48.33
67013;BME280;53926;47.406;19.188;2023-02-07T09:18:25;102615.00;;;8.47;46.98
67013;BME280;53926;47.406;19.188;2023-02-07T09:20:52;102611.53;;;8.27;45.42
67013;BME280;53926;47.406;19.188;2023-02-07T09:23:18;102611.88;;;8.72;47.97
67013;BME280;53926;47.406;19.188;2023-02-07T09:25:48;102610.88;;;8.93;42.41
67013;BME280;53926;47.406;19.188;2023-02-07T09:28:16;102622.50;;;6.97;47.40
67013;BME280;53926;47.406;19.188;2023-02-07T09:30:44;102620.78;;;7.59;47.47
67013;BME280;53926;47.406;19.188;2023-02-07T09:33:13;102620.94;;;8.08;48.68
67013;BME280;53926;47.406;19.188;2023-02-07T09:35:42;102620.16;;;8.17;45.67
67013;BME280;53926;47.406;19.188;2023-02-07T09:38:12;102624.25;;;10.11;46.32
67013;BME280;53926;47.406;19.188;2023-02-07T09:40:40;102624.16;;;11.45;34.92
67013;BME280;53926;47.406;19.188;2023-02-07T09:46:21;102615.72;;;8.49;40.80
67013;BME280;53926;47.406;19.188;2023-02-07T09:48:54;102625.63;;;10.69;37.46
67013;BME280;53926;47.406;19.188;2023-02-07T09:51:24;102618.53;;;10.79;33.27
67013;BME280;53926;47.406;19.188;2023-02-07T09:53:56;102624.62;;;7.65;37.90
67013;BME280;53926;47.406;19.188;2023-02-07T09:56:26;102616.50;;;8.39;39.87
67013;BME280;53926;47.406;19.188;2023-02-07T10:01:25;102603.78;;;10.16;38.01
67013;BME280;53926;47.406;19.188;2023-02-07T10:06:26;102602.44;;;10.84;34.55
67013;BME280;53926;47.406;19.188;2023-02-07T10:08:55;102589.59;;;10.28;34.03
67013;BME280;53926;47.406;19.188;2023-02-07T10:14:03;102604.03;;;7.63;36.56
67013;BME280;53926;47.406;19.188;2023-02-07T10:19:16;102595.22;;;9.22;36.25
67013;BME280;53926;47.406;19.188;2023-02-07T10:27:08;102582.53;;;6.69;34.98
67013;BME280;53926;47.406;19.188;2023-02-07T10:32:20;102576.53;;;9.74;32.69
67013;BME280;53926;47.406;19.188;2023-02-07T10:34:49;102573.63;;;9.77;31.94
67013;BME280;53926;47.406;19.188;2023-02-07T10:37:24;102575.56;;;11.44;30.72
67013;BME280;53926;47.406;19.188;2023-02-07T10:40:05;102574.28;;;11.99;29.32
67013;BME280;53926;47.406;19.188;2023-02-07T10:42:37;102578.69;;;8.56;33.10
67013;BME280;53926;47.406;19.188;2023-02-07T10:45:05;102576.38;;;9.10;31.88
67013;BME280;53926;47.406;19.188;2023-02-07T10:47:37;102577.69;;;8.38;33.05
67013;BME280;53926;47.406;19.188;2023-02-07T10:50:19;102581.91;;;10.81;30.36
67013;BME280;53926;47.406;19.188;2023-02-07T10:52:56;102571.03;;;9.49;30.52
67013;BME280;53926;47.406;19.188;2023-02-07T10:55:36;102565.00;;;9.21;31.34
67013;BME280;53926;47.406;19.188;2023-02-07T10:58:04;102569.03;;;8.08;32.66
67013;BME280;53926;47.406;19.188;2023-02-07T11:00:51;102569.19;;;7.56;34.42
67013;BME280;53926;47.406;19.188;2023-02-07T11:03:23;102569.59;;;5.25;38.50
67013;BME280;53926;47.406;19.188;2023-02-07T11:05:57;102562.06;;;8.87;32.33
67013;BME280;53926;47.406;19.188;2023-02-07T11:08:31;102561.50;;;7.45;33.95
67013;BME280;53926;47.406;19.188;2023-02-07T11:11:21;102571.84;;;7.76;33.99
67013;BME280;53926;47.406;19.188;2023-02-07T11:13:51;102563.84;;;5.66;35.63
67013;BME280;53926;47.406;19.188;2023-02-07T11:16:22;102563.22;;;7.04;34.95
67013;BME280;53926;47.406;19.188;2023-02-07T11:19:02;102568.87;;;5.79;36.76
67013;BME280;53926;47.406;19.188;2023-02-07T11:21:33;102565.44;;;3.54;42.39
67013;BME280;53926;47.406;19.188;2023-02-07T11:24:04;102554.91;;;5.14;37.82
67013;BME280;53926;47.406;19.188;2023-02-07T11:26:33;102561.13;;;5.79;36.30
67013;BME280;53926;47.406;19.188;2023-02-07T11:29:21;102555.59;;;4.58;39.13
67013;BME280;53926;47.406;19.188;2023-02-07T11:31:50;102558.53;;;4.53;38.32
67013;BME280;53926;47.406;19.188;2023-02-07T11:37:09;102555.16;;;5.33;35.69
67013;BME280;53926;47.406;19.188;2023-02-07T11:39:43;102546.22;;;6.26;35.01
67013;BME280;53926;47.406;19.188;2023-02-07T11:42:13;102539.13;;;5.96;34.93
67013;BME280;53926;47.406;19.188;2023-02-07T11:44:41;102541.84;;;4.93;35.53
67013;BME280;53926;47.406;19.188;2023-02-07T11:47:13;102542.56;;;5.74;35.48
67013;BME280;53926;47.406;19.188;2023-02-07T11:49:44;102551.25;;;5.62;34.41
67013;BME280;53926;47.406;19.188;2023-02-07T11:52:12;102539.84;;;7.46;32.20
67013;BME280;53926;47.406;19.188;2023-02-07T11:54:41;102531.16;;;6.53;32.75
67013;BME280;53926;47.406;19.188;2023-02-07T11:57:15;102528.37;;;9.05;29.52
67013;BME280;53926;47.406;19.188;2023-02-07T12:02:27;102516.72;;;8.81;30.40
67013;BME280;53926;47.406;19.188;2023-02-07T12:05:16;102522.13;;;7.61;31.28
67013;BME280;53926;47.406;19.188;2023-02-07T12:07:49;102524.87;;;5.47;33.83
67013;BME280;53926;47.406;19.188;2023-02-07T12:10:31;102525.00;;;5.45;33.72
67013;BME280;53926;47.406;19.188;2023-02-07T12:15:41;102513.28;;;7.23;32.25
67013;BME280;53926;47.406;19.188;2023-02-07T12:20:57;102505.97;;;8.27;30.77
67013;BME280;53926;47.406;19.188;2023-02-07T12:23:36;102514.00;;;7.04;32.77
67013;BME280;53926;47.406;19.188;2023-02-07T12:26:22;102508.34;;;7.50;31.74
67013;BME280;53926;47.406;19.188;2023-02-07T12:36:42;102500.06;;;7.26;30.92
67013;BME280;53926;47.406;19.188;2023-02-07T12:39:25;102507.81;;;7.66;31.76
67013;BME280;53926;47.406;19.188;2023-02-07T12:44:55;102496.78;;;8.72;29.87
67013;BME280;53926;47.406;19.188;2023-02-07T12:47:43;102507.72;;;6.54;31.97
67013;BME280;53926;47.406;19.188;2023-02-07T13:12:17;102491.31;;;3.21;38.19
67013;BME280;53926;47.406;19.188;2023-02-07T13:20:23;102491.37;;;5.00;36.23
67013;BME280;53926;47.406;19.188;2023-02-07T13:22:58;102490.75;;;3.79;38.23
67013;BME280;53926;47.406;19.188;2023-02-07T13:25:35;102493.00;;;4.67;37.62
67013;BME280;53926;47.406;19.188;2023-02-07T13:28:12;102496.06;;;3.14;39.24
67013;BME280;53926;47.406;19.188;2023-02-07T13:30:45;102502.59;;;2.54;41.59
67013;BME280;53926;47.406;19.188;2023-02-07T13:33:45;102496.41;;;1.89;43.55
67013;BME280;53926;47.406;19.188;2023-02-07T13:44:02;102509.50;;;2.54;44.07
67013;BME280;53926;47.406;19.188;2023-02-07T13:46:58;102495.19;;;3.39;40.98
67013;BME280;53926;47.406;19.188;2023-02-07T13:49:42;102486.44;;;4.03;39.24
67013;BME280;53926;47.406;19.188;2023-02-07T13:52:18;102484.78;;;3.78;39.63
67013;BME280;53926;47.406;19.188;2023-02-07T13:55:17;102493.63;;;1.79;45.22
67013;BME280;53926;47.406;19.188;2023-02-07T13:57:47;102484.88;;;2.09;45.77
67013;BME280;53926;47.406;19.188;2023-02-07T14:03:21;102480.13;;;2.43;43.50
67013;BME280;53926;47.406;19.188;2023-02-07T14:05:49;102483.25;;;1.81;46.05
67013;BME280;53926;47.406;19.188;2023-02-07T14:10:52;102476.22;;;1.98;45.76
67013;BME280;53926;47.406;19.188;2023-02-07T14:13:26;102470.87;;;1.17;47.21
67013;BME280;53926;47.406;19.188;2023-02-07T14:15:55;102477.56;;;1.05;48.14
67013;BME280;53926;47.406;19.188;2023-02-07T14:18:42;102473.97;;;1.37;48.04
67013;BME280;53926;47.406;19.188;2023-02-07T14:24:15;102493.59;;;1.23;49.14
67013;BME280;53926;47.406;19.188;2023-02-07T14:31:48;102495.22;;;0.96;48.09
67013;BME280;53926;47.406;19.188;2023-02-07T14:34:18;102500.81;;;1.02;49.29
67013;BME280;53926;47.406;19.188;2023-02-07T14:36:49;102499.06;;;1.03;49.70
67013;BME280;53926;47.406;19.188;2023-02-07T14:41:50;102497.63;;;0.54;50.18
67013;BME280;53926;47.406;19.188;2023-02-07T14:44:27;102500.84;;;0.11;52.36
67013;BME280;53926;47.406;19.188;2023-02-07T14:46:58;102507.22;;;0.20;52.19
67013;BME280;53926;47.406;19.188;2023-02-07T14:52:04;102500.44;;;-0.29;53.98
67013;BME280;53926;47.406;19.188;2023-02-07T14:54:42;102501.50;;;-0.33;54.44
67013;BME280;53926;47.406;19.188;2023-02-07T15:02:53;102512.63;;;-0.66;55.89
67013;BME280;53926;47.406;19.188;2023-02-07T15:05:35;102504.63;;;-0.77;56.46
67013;BME280;53926;47.406;19.188;2023-02-07T15:10:35;102500.44;;;-1.29;57.62